createdAt,value
2022-08-30T00:00:46.431Z,100.00
2022-08-30T00:03:37.144Z,100.00
2022-08-30T00:06:25.739Z,100.00
2022-08-30T00:09:12.842Z,100.00
2022-08-30T00:11:59.906Z,100.00
2022-08-30T00:14:48.182Z,100.00
2022-08-30T00:17:35.290Z,100.00
2022-08-30T00:20:25.877Z,100.00
2022-08-30T00:23:13.684Z,100.00
2022-08-30T00:26:02.101Z,100.00
2022-08-30T00:28:49.558Z,100.00
2022-08-30T00:31:36.624Z,100.00
2022-08-30T00:34:23.582Z,100.00
2022-08-30T00:37:10.738Z,100.00
2022-08-30T00:39:57.760Z,100.00
2022-08-30T00:42:44.860Z,100.00
2022-08-30T00:45:38.991Z,100.00
2022-08-30T00:48:26.032Z,100.00
2022-08-30T00:51:14.490Z,100.00
2022-08-30T00:54:02.405Z,100.00
2022-08-30T00:56:50.116Z,100.00
2022-08-30T00:59:37.401Z,100.00
2022-08-30T01:02:26.943Z,100.00
2022-08-30T01:05:16.116Z,100.00
2022-08-30T01:08:03.624Z,100.00
2022-08-30T01:10:53.513Z,100.00
2022-08-30T01:13:41.248Z,100.00
2022-08-30T01:16:34.460Z,100.00
2022-08-30T01:19:47.494Z,100.00
2022-08-30T01:23:10.086Z,100.00
2022-08-30T01:25:58.144Z,100.00
2022-08-30T01:28:48.740Z,100.00
2022-08-30T01:31:37.201Z,100.00
2022-08-30T01:34:25.650Z,100.00
2022-08-30T01:37:12.702Z,100.00
2022-08-30T01:40:00.211Z,100.00
2022-08-30T01:42:47.418Z,100.00
2022-08-30T01:45:34.500Z,100.00
2022-08-30T01:48:22.222Z,100.00
2022-08-30T01:51:18.523Z,100.00
2022-08-30T01:54:06.246Z,100.00
2022-08-30T01:56:53.310Z,100.00
2022-08-30T01:59:43.476Z,100.00
2022-08-30T02:02:30.537Z,100.00
2022-08-30T02:05:17.723Z,100.00
2022-08-30T02:08:05.142Z,100.00
2022-08-30T02:10:52.198Z,100.00
2022-08-30T02:13:40.335Z,100.00
2022-08-30T02:16:27.739Z,100.00
2022-08-30T02:19:15.178Z,100.00
2022-08-30T02:22:02.191Z,100.00
2022-08-30T02:24:49.226Z,100.00
2022-08-30T02:27:36.902Z,100.00
2022-08-30T02:30:24.073Z,100.00
2022-08-30T02:33:11.418Z,100.00
2022-08-30T02:35:58.566Z,100.00
2022-08-30T02:38:46.340Z,100.00
2022-08-30T02:41:33.374Z,100.00
2022-08-30T02:44:20.482Z,100.00
2022-08-30T02:47:07.601Z,100.00
2022-08-30T02:49:54.574Z,100.00
2022-08-30T02:52:42.182Z,100.00
2022-08-30T02:55:32.169Z,100.00
2022-08-30T02:58:19.361Z,100.00
2022-08-30T03:01:06.515Z,100.00
2022-08-30T03:03:53.792Z,100.00
2022-08-30T03:06:41.118Z,100.00
2022-08-30T03:09:28.222Z,100.00
2022-08-30T03:12:15.526Z,100.00
2022-08-30T03:15:02.859Z,100.00
2022-08-30T03:17:49.958Z,100.00
2022-08-30T03:20:36.979Z,100.00
2022-08-30T03:23:24.435Z,100.00
2022-08-30T03:26:14.782Z,100.00
2022-08-30T03:29:02.276Z,100.00
2022-08-30T03:31:53.532Z,100.00
2022-08-30T03:34:41.133Z,100.00
2022-08-30T03:37:28.093Z,100.00
2022-08-30T03:40:17.308Z,100.00
2022-08-30T03:43:05.965Z,100.00
2022-08-30T03:45:53.255Z,100.00
2022-08-30T03:48:40.681Z,100.00
2022-08-30T03:51:27.757Z,100.00
2022-08-30T03:54:15.253Z,100.00
2022-08-30T03:57:02.417Z,100.00
2022-08-30T03:59:49.477Z,100.00
2022-08-30T04:02:36.559Z,100.00
2022-08-30T04:05:23.594Z,100.00
2022-08-30T04:08:10.770Z,100.00
2022-08-30T04:10:57.896Z,100.00
2022-08-30T04:13:44.999Z,100.00
2022-08-30T04:16:32.386Z,100.00
2022-08-30T04:19:19.454Z,100.00
2022-08-30T04:22:06.435Z,100.00
2022-08-30T04:24:54.067Z,100.00
2022-08-30T04:27:41.045Z,100.00
2022-08-30T04:30:28.377Z,100.00
2022-08-30T04:33:16.989Z,100.00
2022-08-30T04:36:06.698Z,100.00
2022-08-30T04:38:53.893Z,100.00
2022-08-30T04:41:42.769Z,100.00
2022-08-30T04:44:29.956Z,100.00
2022-08-30T04:47:18.354Z,100.00
2022-08-30T04:50:11.831Z,100.00
2022-08-30T04:52:58.789Z,100.00
2022-08-30T04:55:45.827Z,100.00
2022-08-30T04:58:33.517Z,100.00
2022-08-30T05:01:24.047Z,100.00
2022-08-30T05:04:11.799Z,100.00
2022-08-30T05:06:58.793Z,100.00
2022-08-30T05:09:45.770Z,100.00
2022-08-30T05:12:32.791Z,100.00
2022-08-30T05:15:21.782Z,100.00
2022-08-30T05:18:13.371Z,100.00
2022-08-30T05:21:11.138Z,100.00
2022-08-30T05:24:02.870Z,100.00
2022-08-30T05:26:50.072Z,100.00
2022-08-30T05:29:37.037Z,100.00
2022-08-30T05:32:24.617Z,100.00
2022-08-30T05:35:13.507Z,100.00
2022-08-30T05:38:00.957Z,100.00
2022-08-30T05:40:47.938Z,100.00
2022-08-30T05:43:35.277Z,100.00
2022-08-30T05:46:22.847Z,100.00
2022-08-30T05:49:10.425Z,100.00
2022-08-30T05:51:57.420Z,100.00
2022-08-30T05:54:45.429Z,100.00
2022-08-30T05:57:36.547Z,100.00
2022-08-30T06:00:24.023Z,100.00
2022-08-30T06:03:12.911Z,100.00
2022-08-30T06:06:01.075Z,100.00
2022-08-30T06:08:49.009Z,100.00
2022-08-30T06:11:36.737Z,100.00
2022-08-30T06:14:24.322Z,100.00
2022-08-30T06:17:11.342Z,100.00
2022-08-30T06:19:58.289Z,100.00
2022-08-30T06:22:45.286Z,100.00
2022-08-30T06:25:42.063Z,100.00
2022-08-30T06:28:29.395Z,100.00
2022-08-30T06:31:18.433Z,100.00
2022-08-30T06:34:05.837Z,100.00
2022-08-30T06:36:52.806Z,100.00
2022-08-30T06:39:39.820Z,100.00
2022-08-30T06:42:32.199Z,100.00
2022-08-30T06:45:20.609Z,100.00
2022-08-30T06:48:07.632Z,100.00
2022-08-30T06:50:55.061Z,100.00
2022-08-30T06:53:42.438Z,100.00
2022-08-30T06:56:31.130Z,100.00
2022-08-30T06:59:18.299Z,100.00
2022-08-30T07:02:06.385Z,100.00
2022-08-30T07:04:53.663Z,100.00
2022-08-30T07:07:40.589Z,100.00
2022-08-30T07:10:27.777Z,100.00
2022-08-30T07:13:15.029Z,100.00
2022-08-30T07:16:02.187Z,100.00
2022-08-30T07:18:54.663Z,100.00
2022-08-30T07:21:43.971Z,100.00
2022-08-30T07:24:31.069Z,100.00
2022-08-30T07:27:18.117Z,100.00
2022-08-30T07:30:07.421Z,100.00
2022-08-30T07:32:56.683Z,100.00
2022-08-30T07:35:44.258Z,98.87
2022-08-30T07:38:32.078Z,98.52
2022-08-30T07:41:28.258Z,98.58
2022-08-30T07:44:15.328Z,96.01
2022-08-30T07:47:02.341Z,96.55
2022-08-30T07:49:49.350Z,96.63
2022-08-30T07:55:23.507Z,95.75
2022-08-30T07:58:10.603Z,96.64
2022-08-30T08:00:59.616Z,96.69
2022-08-30T08:03:46.909Z,95.42
2022-08-30T08:06:39.130Z,94.71
2022-08-30T08:09:26.149Z,94.24
2022-08-30T08:12:13.561Z,93.17
2022-08-30T08:15:02.101Z,93.02
2022-08-30T08:17:53.852Z,93.24
2022-08-30T08:20:41.330Z,93.21
2022-08-30T08:23:28.969Z,92.42
2022-08-30T08:26:16.610Z,91.99
2022-08-30T08:29:04.957Z,92.26
2022-08-30T08:31:51.879Z,90.94
2022-08-30T08:34:38.938Z,90.59
2022-08-30T08:37:26.770Z,90.12
2022-08-30T08:40:19.456Z,89.90
2022-08-30T08:43:13.170Z,88.68
2022-08-30T08:46:28.408Z,88.01
2022-08-30T08:49:15.611Z,87.52
2022-08-30T08:52:24.060Z,87.52
2022-08-30T08:55:14.245Z,85.91
2022-08-30T08:58:02.005Z,86.51
2022-08-30T09:00:49.166Z,86.38
2022-08-30T09:03:36.742Z,86.79
2022-08-30T09:06:23.755Z,86.33
2022-08-30T09:09:11.286Z,84.04
2022-08-30T09:11:58.459Z,83.27
2022-08-30T09:14:51.465Z,82.95
2022-08-30T09:18:16.919Z,82.23
2022-08-30T09:21:07.730Z,82.44
2022-08-30T09:24:04.619Z,80.76
2022-08-30T09:26:51.803Z,80.84
2022-08-30T09:29:57.490Z,79.03
2022-08-30T09:32:59.953Z,79.19
2022-08-30T09:35:49.826Z,79.56
2022-08-30T09:38:37.255Z,77.60
2022-08-30T09:41:44.970Z,78.15
2022-08-30T09:44:37.825Z,77.22
2022-08-30T09:47:31.583Z,77.77
2022-08-30T09:50:24.416Z,77.33
2022-08-30T09:53:23.868Z,77.33
2022-08-30T09:56:23.476Z,76.62
2022-08-30T09:59:23.053Z,76.14
2022-08-30T10:02:21.951Z,73.78
2022-08-30T10:05:13.210Z,74.65
2022-08-30T10:08:12.913Z,76.06
2022-08-30T10:11:07.793Z,76.31
2022-08-30T10:14:05.311Z,77.50
2022-08-30T10:17:19.904Z,77.21
2022-08-30T10:20:36.785Z,76.38
2022-08-30T10:23:32.716Z,75.93
2022-08-30T10:26:42.845Z,75.41
2022-08-30T10:29:39.497Z,75.06
2022-08-30T10:32:37.945Z,73.65
2022-08-30T10:35:34.067Z,73.86
2022-08-30T10:38:37.873Z,72.22
2022-08-30T10:41:24.818Z,71.83
2022-08-30T10:44:26.677Z,72.18
2022-08-30T10:47:36.390Z,71.74
2022-08-30T10:50:39.040Z,70.78
2022-08-30T10:53:40.502Z,71.02
2022-08-30T10:56:29.815Z,71.20
2022-08-30T10:59:18.836Z,70.53
2022-08-30T11:02:21.215Z,70.18
2022-08-30T11:05:17.283Z,69.21
2022-08-30T11:08:35.594Z,69.89
2022-08-30T11:11:41.391Z,68.27
2022-08-30T11:14:30.275Z,67.17
2022-08-30T11:17:29.568Z,66.87
2022-08-30T11:20:46.070Z,67.09
2022-08-30T11:23:36.431Z,67.08
2022-08-30T11:26:45.486Z,66.43
2022-08-30T11:29:35.189Z,65.21
2022-08-30T11:36:00.682Z,65.66
2022-08-30T11:38:48.840Z,64.40
2022-08-30T11:41:48.621Z,64.02
2022-08-30T11:44:37.113Z,63.39
2022-08-30T11:47:45.735Z,64.10
2022-08-30T11:53:57.627Z,65.05
2022-08-30T11:57:01.026Z,64.67
2022-08-30T12:00:21.418Z,64.72
2022-08-30T12:03:15.176Z,63.83
2022-08-30T12:06:19.246Z,63.67
2022-08-30T12:09:08.360Z,63.16
2022-08-30T12:12:07.669Z,61.82
2022-08-30T12:14:57.808Z,61.67
2022-08-30T12:18:17.164Z,60.70
2022-08-30T12:21:24.988Z,61.56
2022-08-30T12:24:28.649Z,60.67
2022-08-30T12:27:32.457Z,61.13
2022-08-30T12:30:29.771Z,62.29
2022-08-30T12:33:37.558Z,58.47
2022-08-30T12:36:32.754Z,57.13
2022-08-30T12:39:26.006Z,58.75
2022-08-30T12:42:22.459Z,57.92
2022-08-30T12:45:20.346Z,59.36
2022-08-30T12:51:51.292Z,56.49
2022-08-30T12:54:41.149Z,55.58
2022-08-30T12:58:00.709Z,55.41
2022-08-30T13:00:49.512Z,57.83
2022-08-30T13:03:38.297Z,57.43
2022-08-30T13:06:58.737Z,55.87
2022-08-30T13:09:49.058Z,56.30
2022-08-30T13:12:41.597Z,52.79
2022-08-30T13:16:23.088Z,53.30
2022-08-30T13:23:19.606Z,53.98
2022-08-30T13:26:11.442Z,53.15
2022-08-30T13:29:01.735Z,52.56
2022-08-30T13:31:51.206Z,52.23
2022-08-30T13:34:39.152Z,52.12
2022-08-30T13:40:34.609Z,53.06
2022-08-30T13:43:26.183Z,51.85
2022-08-30T13:46:16.055Z,50.99
2022-08-30T13:49:43.158Z,50.15
2022-08-30T13:52:21.954Z,50.83
2022-08-30T13:55:10.115Z,50.69
2022-08-30T13:57:57.817Z,50.60
2022-08-30T14:00:48.495Z,50.01
2022-08-30T14:03:35.722Z,50.62
2022-08-30T14:06:33.103Z,47.76
2022-08-30T14:09:21.526Z,48.78
2022-08-30T14:12:14.092Z,48.14
2022-08-30T14:15:10.347Z,47.76
2022-08-30T14:17:57.468Z,46.59
2022-08-30T14:20:44.679Z,47.00
2022-08-30T14:23:32.096Z,45.99
2022-08-30T14:26:26.849Z,45.43
2022-08-30T14:29:26.292Z,45.92
2022-08-30T14:32:17.615Z,45.18
2022-08-30T14:35:07.227Z,43.32
2022-08-30T14:37:55.048Z,41.48
2022-08-30T14:40:42.324Z,43.04
2022-08-30T14:43:29.865Z,40.52
2022-08-30T14:46:17.129Z,42.79
2022-08-30T14:49:06.922Z,42.21
2022-08-30T14:51:57.354Z,42.34
2022-08-30T14:54:59.343Z,42.54
2022-08-30T14:57:48.755Z,43.91
2022-08-30T15:00:35.750Z,43.34
2022-08-30T15:03:23.459Z,44.15
2022-08-30T15:06:26.579Z,45.84
2022-08-30T15:09:18.726Z,44.19
2022-08-30T15:12:10.839Z,44.84
2022-08-30T15:14:57.873Z,44.24
2022-08-30T15:17:44.997Z,45.38
2022-08-30T15:20:32.842Z,44.53
2022-08-30T15:23:22.970Z,44.53
2022-08-30T15:26:12.034Z,45.03
2022-08-30T15:28:59.315Z,45.48
2022-08-30T15:31:49.679Z,45.31
2022-08-30T15:34:37.009Z,45.13
2022-08-30T15:37:24.131Z,45.03
2022-08-30T15:40:13.591Z,45.05
2022-08-30T15:43:03.353Z,45.82
2022-08-30T15:45:50.369Z,45.66
2022-08-30T15:48:47.927Z,44.70
2022-08-30T15:51:41.879Z,45.32
2022-08-30T15:54:33.053Z,45.75
2022-08-30T15:57:20.106Z,45.31
2022-08-30T16:00:11.539Z,45.89
2022-08-30T16:02:58.790Z,46.03
2022-08-30T16:05:45.853Z,46.88
2022-08-30T16:08:46.350Z,46.76
2022-08-30T16:11:33.538Z,47.89
2022-08-30T16:14:21.706Z,46.70
2022-08-30T16:17:09.033Z,48.00
2022-08-30T16:19:58.708Z,49.82
2022-08-30T16:22:47.136Z,47.92
2022-08-30T16:25:40.882Z,48.80
2022-08-30T16:28:29.362Z,49.93
2022-08-30T16:31:17.861Z,47.88
2022-08-30T16:34:06.918Z,48.82
2022-08-30T16:36:54.946Z,50.47
2022-08-30T16:39:46.547Z,49.80
2022-08-30T16:42:34.514Z,51.69
2022-08-30T16:45:21.694Z,51.58
2022-08-30T16:48:13.067Z,52.62
2022-08-30T16:51:00.953Z,52.38
2022-08-30T16:53:48.213Z,52.69
2022-08-30T16:56:36.311Z,53.21
2022-08-30T16:59:24.293Z,53.86
2022-08-30T17:02:11.349Z,54.23
2022-08-30T17:04:58.681Z,55.05
2022-08-30T17:07:45.684Z,55.46
2022-08-30T17:10:33.370Z,55.29
2022-08-30T17:13:21.958Z,56.79
2022-08-30T17:16:11.790Z,56.46
2022-08-30T17:19:01.187Z,57.77
2022-08-30T17:21:48.276Z,57.43
2022-08-30T17:24:35.607Z,59.10
2022-08-30T17:27:22.664Z,59.14
2022-08-30T17:30:10.487Z,59.12
2022-08-30T17:32:57.505Z,59.79
2022-08-30T17:35:44.886Z,60.13
2022-08-30T17:38:32.262Z,61.23
2022-08-30T17:41:19.299Z,62.11
2022-08-30T17:44:07.567Z,63.30
2022-08-30T17:46:56.402Z,63.18
2022-08-30T17:49:43.499Z,63.75
2022-08-30T17:52:30.516Z,63.97
2022-08-30T17:55:18.216Z,66.14
2022-08-30T17:58:05.215Z,66.68
2022-08-30T18:00:55.333Z,65.93
2022-08-30T18:03:45.411Z,68.00
2022-08-30T18:06:33.348Z,67.90
2022-08-30T18:09:21.846Z,67.68
2022-08-30T18:12:10.667Z,68.05
2022-08-30T18:14:57.651Z,67.57
2022-08-30T18:17:47.678Z,68.85
2022-08-30T18:20:35.087Z,69.58
2022-08-30T18:23:24.234Z,69.72
2022-08-30T18:26:13.734Z,70.45
2022-08-30T18:29:05.023Z,69.87
2022-08-30T18:31:52.181Z,70.14
2022-08-30T18:34:42.463Z,70.74
2022-08-30T18:37:29.571Z,70.87
2022-08-30T18:40:18.623Z,70.34
2022-08-30T18:43:09.815Z,71.29
2022-08-30T18:45:57.430Z,71.68
2022-08-30T18:48:45.047Z,72.30
2022-08-30T18:51:32.094Z,72.57
2022-08-30T18:54:19.526Z,72.73
2022-08-30T18:57:06.622Z,72.86
2022-08-30T18:59:53.604Z,72.12
2022-08-30T19:02:41.432Z,71.44
2022-08-30T19:05:30.693Z,72.62
2022-08-30T19:08:18.493Z,71.78
2022-08-30T19:11:07.443Z,71.48
2022-08-30T19:13:54.621Z,72.60
2022-08-30T19:16:42.767Z,73.16
2022-08-30T19:19:29.819Z,72.95
2022-08-30T19:22:20.737Z,71.74
2022-08-30T19:25:09.419Z,71.61
2022-08-30T19:27:56.425Z,71.22
2022-08-30T19:30:43.722Z,71.48
2022-08-30T19:33:30.832Z,70.81
2022-08-30T19:36:17.830Z,71.15
2022-08-30T19:39:04.971Z,70.04
2022-08-30T19:41:52.230Z,69.58
2022-08-30T19:44:39.471Z,69.99
2022-08-30T19:47:26.605Z,70.16
2022-08-30T19:50:14.744Z,70.25
2022-08-30T19:53:01.851Z,70.34
2022-08-30T19:55:50.812Z,70.45
2022-08-30T19:58:38.212Z,71.09
2022-08-30T20:01:33.076Z,71.44
2022-08-30T20:04:20.886Z,71.44
2022-08-30T20:07:08.795Z,71.98
2022-08-30T20:09:56.489Z,72.92
2022-08-30T20:12:45.114Z,72.36
2022-08-30T20:15:32.853Z,72.15
2022-08-30T20:18:20.491Z,72.48
2022-08-30T20:21:13.558Z,73.05
2022-08-30T20:24:00.988Z,72.96
2022-08-30T20:26:48.063Z,73.33
2022-08-30T20:29:35.245Z,73.45
2022-08-30T20:32:23.171Z,74.24
2022-08-30T20:35:10.646Z,74.09
2022-08-30T20:37:57.764Z,74.43
2022-08-30T20:40:46.705Z,74.38
2022-08-30T20:43:33.701Z,73.93
2022-08-30T20:46:21.342Z,74.09
2022-08-30T20:49:08.422Z,73.63
2022-08-30T20:51:55.393Z,73.45
2022-08-30T20:54:43.459Z,73.88
2022-08-30T20:57:30.902Z,73.27
2022-08-30T21:00:18.163Z,73.58
2022-08-30T21:03:25.507Z,74.06
2022-08-30T21:06:16.596Z,72.84
2022-08-30T21:09:08.857Z,72.41
2022-08-30T21:11:55.850Z,72.39
2022-08-30T21:14:42.902Z,72.10
2022-08-30T21:17:30.326Z,71.48
2022-08-30T21:20:17.857Z,70.78
2022-08-30T21:23:04.968Z,70.66
2022-08-30T21:25:52.146Z,70.65
2022-08-30T21:28:40.350Z,70.31
2022-08-30T21:31:29.210Z,70.03
2022-08-30T21:34:16.828Z,69.83
2022-08-30T21:37:05.186Z,69.20
2022-08-30T21:39:52.294Z,68.50
2022-08-30T21:42:40.184Z,68.20
2022-08-30T21:45:27.286Z,67.63
2022-08-30T21:48:14.411Z,67.90
2022-08-30T21:51:09.805Z,67.77
2022-08-30T21:53:57.785Z,67.92
2022-08-30T21:56:46.995Z,68.77
2022-08-30T21:59:34.698Z,69.85
2022-08-30T22:02:22.911Z,68.92
2022-08-30T22:05:09.957Z,68.75
2022-08-30T22:08:00.970Z,69.06
2022-08-30T22:10:48.194Z,69.36
2022-08-30T22:13:36.933Z,68.89
2022-08-30T22:16:28.000Z,70.74
2022-08-30T22:19:17.740Z,68.92
2022-08-30T22:22:07.056Z,68.47
2022-08-30T22:24:54.257Z,68.59
2022-08-30T22:27:41.250Z,67.24
2022-08-30T22:30:28.193Z,67.51
2022-08-30T22:33:17.778Z,66.87
2022-08-30T22:36:10.729Z,66.12
2022-08-30T22:38:59.787Z,65.52
2022-08-30T22:41:47.452Z,66.91
2022-08-30T22:44:34.578Z,65.64
2022-08-30T22:47:21.536Z,65.09
2022-08-30T22:50:08.637Z,66.10
2022-08-30T22:52:55.699Z,66.26
2022-08-30T22:55:42.784Z,64.82
2022-08-30T22:58:30.021Z,65.72
2022-08-30T23:01:26.949Z,64.72
2022-08-30T23:04:14.102Z,65.70
2022-08-30T23:07:01.192Z,66.38
2022-08-30T23:09:48.226Z,65.65
2022-08-30T23:12:38.834Z,67.04
2022-08-30T23:15:27.546Z,66.44
2022-08-30T23:18:14.531Z,66.87
2022-08-30T23:21:10.975Z,66.87
2022-08-30T23:24:17.612Z,67.79
2022-08-30T23:27:23.035Z,66.77
2022-08-30T23:30:29.173Z,67.23
2022-08-30T23:33:35.166Z,65.93
2022-08-30T23:36:40.994Z,65.61
2022-08-30T23:39:47.216Z,65.66
2022-08-30T23:42:52.742Z,66.22
2022-08-30T23:45:58.571Z,65.05
2022-08-30T23:49:04.726Z,66.14
2022-08-30T23:52:10.103Z,65.97
2022-08-30T23:55:15.783Z,67.36
2022-08-30T23:58:21.417Z,68.11
